createdAt,value
2018-12-16T00:00:43.727Z,101992.61
2018-12-16T00:03:47.328Z,101989.56
2018-12-16T00:06:51.162Z,101988.49
2018-12-16T00:09:55.038Z,101976.27
2018-12-16T00:12:58.716Z,101977.90
2018-12-16T00:16:02.377Z,101981.79
2018-12-16T00:19:08.091Z,101987.09
2018-12-16T00:22:12.727Z,101987.17
2018-12-16T00:25:18.413Z,101978.67
2018-12-16T00:28:22.094Z,101976.53
2018-12-16T00:31:26.656Z,101979.81
2018-12-16T00:34:30.269Z,101966.71
2018-12-16T00:37:34.923Z,101960.98
2018-12-16T00:40:38.624Z,101953.95
2018-12-16T00:43:42.503Z,101954.06
2018-12-16T00:46:47.043Z,101953.92
2018-12-16T00:49:50.817Z,101954.08
2018-12-16T00:52:54.324Z,101951.98
2018-12-16T00:55:58.071Z,101957.12
2018-12-16T00:59:01.591Z,101959.94
2018-12-16T01:02:05.456Z,101962.61
2018-12-16T01:05:09.163Z,101956.47
2018-12-16T01:08:12.811Z,101957.02
2018-12-16T01:11:16.887Z,101948.92
2018-12-16T01:14:20.481Z,101949.30
2018-12-16T01:17:23.921Z,101948.68
2018-12-16T01:20:27.591Z,101946.87
2018-12-16T01:23:34.600Z,101960.55
2018-12-16T01:26:38.205Z,101961.95
2018-12-16T01:29:48.261Z,101959.64
2018-12-16T01:32:52.867Z,101957.23
2018-12-16T01:35:56.505Z,101953.72
2018-12-16T01:39:00.120Z,101950.59
2018-12-16T01:42:03.834Z,101939.08
2018-12-16T01:45:07.476Z,101932.51
2018-12-16T01:48:11.045Z,101927.85
2018-12-16T01:51:14.637Z,101922.97
2018-12-16T01:54:18.337Z,101922.81
2018-12-16T01:57:21.897Z,101913.99
2018-12-16T02:00:25.455Z,101923.06
2018-12-16T02:03:29.147Z,101916.72
2018-12-16T02:06:32.860Z,101910.81
2018-12-16T02:09:36.585Z,101910.30
2018-12-16T02:12:40.129Z,101898.52
2018-12-16T02:15:43.707Z,101896.60
2018-12-16T02:18:47.195Z,101885.88
2018-12-16T02:21:50.683Z,101870.97
2018-12-16T02:24:54.271Z,101872.29
2018-12-16T02:27:58.144Z,101848.79
2018-12-16T02:31:01.752Z,101847.08
2018-12-16T02:34:05.247Z,101843.64
2018-12-16T02:37:08.827Z,101839.09
2018-12-16T02:40:12.374Z,101831.45
2018-12-16T02:43:15.973Z,101830.02
2018-12-16T02:46:19.574Z,101825.50
2018-12-16T02:49:23.076Z,101812.89
2018-12-16T02:52:26.619Z,101807.94
2018-12-16T02:55:30.133Z,101800.41
2018-12-16T02:58:33.723Z,101791.13
2018-12-16T03:01:37.435Z,101777.56
2018-12-16T03:04:40.955Z,101774.67
2018-12-16T03:07:44.468Z,101773.54
2018-12-16T03:10:47.957Z,101764.64
2018-12-16T03:13:51.606Z,101764.85
2018-12-16T03:16:55.134Z,101753.75
2018-12-16T03:19:58.688Z,101734.37
2018-12-16T03:23:02.358Z,101736.90
2018-12-16T03:26:05.944Z,101728.79
2018-12-16T03:29:09.378Z,101730.68
2018-12-16T03:32:12.882Z,101729.15
2018-12-16T03:35:16.801Z,101721.31
2018-12-16T03:38:20.465Z,101711.45
2018-12-16T03:41:23.985Z,101712.20
2018-12-16T03:44:27.490Z,101698.39
2018-12-16T03:47:31.104Z,101682.70
2018-12-16T03:50:34.772Z,101662.74
2018-12-16T03:53:38.321Z,101656.82
2018-12-16T03:56:41.882Z,101652.34
2018-12-16T03:59:45.388Z,101644.02
2018-12-16T04:02:48.836Z,101642.80
2018-12-16T04:05:52.369Z,101641.88
2018-12-16T04:08:55.916Z,101643.36
2018-12-16T04:11:59.497Z,101647.03
2018-12-16T04:15:03.047Z,101637.53
2018-12-16T04:18:06.732Z,101636.78
2018-12-16T04:21:10.394Z,101628.30
2018-12-16T04:24:13.852Z,101632.53
2018-12-16T04:27:17.442Z,101632.34
2018-12-16T04:30:20.909Z,101632.83
2018-12-16T04:33:24.550Z,101640.80
2018-12-16T04:36:28.118Z,101630.70
2018-12-16T04:39:31.904Z,101630.56
2018-12-16T04:42:35.545Z,101627.54
2018-12-16T04:45:39.137Z,101634.22
2018-12-16T04:48:42.664Z,101637.51
2018-12-16T04:51:46.152Z,101641.74
2018-12-16T04:54:49.635Z,101646.12
2018-12-16T04:57:53.164Z,101653.77
2018-12-16T05:00:56.582Z,101655.63
2018-12-16T05:04:00.005Z,101657.46
2018-12-16T05:07:04.680Z,101660.75
2018-12-16T05:10:19.375Z,101661.90
2018-12-16T05:13:22.881Z,101663.59
2018-12-16T05:16:26.421Z,101658.96
2018-12-16T05:19:29.950Z,101656.98
2018-12-16T05:22:33.535Z,101652.98
2018-12-16T05:25:37.159Z,101656.41
2018-12-16T05:28:40.781Z,101642.08
2018-12-16T05:31:44.355Z,101634.75
2018-12-16T05:34:47.927Z,101620.08
2018-12-16T05:37:51.409Z,101612.79
2018-12-16T05:40:54.880Z,101612.57
2018-12-16T05:43:58.447Z,101614.55
2018-12-16T05:47:01.931Z,101624.82
2018-12-16T05:50:06.443Z,101620.78
2018-12-16T05:53:10.624Z,101610.42
2018-12-16T05:56:15.538Z,101598.17
2018-12-16T05:59:19.148Z,101597.59
2018-12-16T06:02:22.742Z,101593.18
2018-12-16T06:05:28.170Z,101600.88
2018-12-16T06:08:31.762Z,101593.83
2018-12-16T06:11:35.326Z,101587.97
2018-12-16T06:14:38.864Z,101596.28
2018-12-16T06:17:42.316Z,101581.96
2018-12-16T06:20:46.770Z,101577.80
2018-12-16T06:23:55.473Z,101584.73
2018-12-16T06:26:53.989Z,101592.63
2018-12-16T06:29:57.564Z,101579.00
2018-12-16T06:33:01.155Z,101577.07
2018-12-16T06:36:04.645Z,101582.91
2018-12-16T06:39:08.101Z,101586.62
2018-12-16T06:42:11.915Z,101597.62
2018-12-16T06:45:15.436Z,101589.18
2018-12-16T06:48:18.994Z,101581.15
2018-12-16T06:51:22.507Z,101583.59
2018-12-16T06:54:26.239Z,101597.95
2018-12-16T06:57:29.686Z,101591.28
2018-12-16T07:00:33.046Z,101596.60
2018-12-16T07:03:37.155Z,101603.72
2018-12-16T07:06:40.706Z,101612.86
2018-12-16T07:09:44.337Z,101610.84
2018-12-16T07:12:47.973Z,101613.17
2018-12-16T07:15:51.537Z,101610.99
2018-12-16T07:18:55.726Z,101609.09
2018-12-16T07:21:59.272Z,101615.44
2018-12-16T07:25:03.070Z,101617.42
2018-12-16T07:28:06.801Z,101619.88
2018-12-16T07:31:10.436Z,101622.59
2018-12-16T07:34:14.126Z,101617.82
2018-12-16T07:37:19.192Z,101624.13
2018-12-16T07:40:22.012Z,101634.09
2018-12-16T07:43:25.740Z,101643.64
2018-12-16T07:46:29.672Z,101638.94
2018-12-16T07:49:33.327Z,101636.06
2018-12-16T07:52:37.167Z,101638.12
2018-12-16T07:55:40.898Z,101642.71
2018-12-16T07:58:44.683Z,101660.11
2018-12-16T08:01:48.305Z,101666.82
2018-12-16T08:04:51.903Z,101669.12
2018-12-16T08:07:55.554Z,101671.17
2018-12-16T08:10:59.070Z,101665.00
2018-12-16T08:14:02.644Z,101668.20
2018-12-16T08:17:06.413Z,101666.24
2018-12-16T08:20:10.197Z,101670.73
2018-12-16T08:23:13.699Z,101676.15
2018-12-16T08:26:17.304Z,101677.63
2018-12-16T08:29:20.931Z,101680.32
2018-12-16T08:32:24.412Z,101683.54
2018-12-16T08:35:28.073Z,101683.54
2018-12-16T08:38:31.622Z,101681.35
2018-12-16T08:41:35.404Z,101682.26
2018-12-16T08:44:39.029Z,101687.33
2018-12-16T08:47:42.532Z,101694.84
2018-12-16T08:50:46.112Z,101691.78
2018-12-16T08:53:50.153Z,101689.89
2018-12-16T08:56:56.091Z,101698.12
2018-12-16T08:59:59.561Z,101694.03
2018-12-16T09:03:03.187Z,101694.39
2018-12-16T09:06:06.721Z,101701.34
2018-12-16T09:09:10.365Z,101697.56
2018-12-16T09:12:13.916Z,101711.90
2018-12-16T09:15:17.546Z,101713.26
2018-12-16T09:18:22.122Z,101718.14
2018-12-16T09:21:25.795Z,101725.95
2018-12-16T09:24:29.484Z,101728.36
2018-12-16T09:27:33.047Z,101727.12
2018-12-16T09:30:36.543Z,101730.73
2018-12-16T09:33:40.134Z,101727.95
2018-12-16T09:36:43.716Z,101734.33
2018-12-16T09:39:47.293Z,101734.40
2018-12-16T09:42:50.948Z,101738.91
2018-12-16T09:45:54.557Z,101738.25
2018-12-16T09:48:58.059Z,101740.09
2018-12-16T09:52:01.692Z,101735.53
2018-12-16T09:55:06.552Z,101731.82
2018-12-16T09:58:10.366Z,101741.66
2018-12-16T10:01:13.990Z,101737.73
2018-12-16T10:04:17.366Z,101732.09
2018-12-16T10:07:21.002Z,101736.49
2018-12-16T10:10:24.472Z,101733.19
2018-12-16T10:13:27.975Z,101727.38
2018-12-16T10:16:32.710Z,101728.78
2018-12-16T10:19:36.180Z,101720.55
2018-12-16T10:22:40.530Z,101724.92
2018-12-16T10:25:45.162Z,101720.25
2018-12-16T10:28:48.767Z,101722.26
2018-12-16T10:31:52.365Z,101720.89
2018-12-16T10:34:56.002Z,101716.95
2018-12-16T10:37:59.758Z,101711.04
2018-12-16T10:41:03.620Z,101705.74
2018-12-16T10:44:07.211Z,101702.86
2018-12-16T10:47:10.744Z,101703.69
2018-12-16T10:50:14.416Z,101698.24
2018-12-16T10:53:17.961Z,101689.14
2018-12-16T10:56:22.883Z,101689.40
2018-12-16T10:59:26.741Z,101685.53
2018-12-16T11:02:36.258Z,101684.30
2018-12-16T11:05:41.199Z,101691.28
2018-12-16T11:08:46.728Z,101684.59
2018-12-16T11:11:52.272Z,101695.60
2018-12-16T11:15:00.589Z,101693.14
2018-12-16T11:18:16.175Z,101685.16
2018-12-16T11:21:22.740Z,101681.82
2018-12-16T11:24:27.755Z,101683.15
2018-12-16T11:27:34.336Z,101678.34
2018-12-16T11:30:42.887Z,101683.57
2018-12-16T11:33:51.458Z,101688.33
2018-12-16T11:37:00.436Z,101686.06
2018-12-16T11:40:09.884Z,101675.40
2018-12-16T11:43:17.486Z,101681.52
2018-12-16T11:46:25.829Z,101672.86
2018-12-16T11:49:35.787Z,101669.72
2018-12-16T11:52:45.950Z,101666.06
2018-12-16T11:55:54.907Z,101657.15
2018-12-16T11:59:05.615Z,101656.98
2018-12-16T12:05:57.981Z,101657.62
2018-12-16T12:09:01.715Z,101666.81
2018-12-16T12:12:05.530Z,101671.32
2018-12-16T12:15:09.228Z,101667.80
2018-12-16T12:18:12.669Z,101665.75
2018-12-16T12:21:16.274Z,101659.32
2018-12-16T12:24:19.915Z,101656.15
2018-12-16T12:27:23.500Z,101661.45
2018-12-16T12:30:27.184Z,101651.54
2018-12-16T12:33:30.747Z,101660.44
2018-12-16T12:36:34.256Z,101661.42
2018-12-16T12:39:37.862Z,101664.75
2018-12-16T12:42:41.777Z,101673.92
2018-12-16T12:45:45.437Z,101666.42
2018-12-16T12:48:48.973Z,101666.42
2018-12-16T12:51:52.548Z,101673.18
2018-12-16T12:54:56.224Z,101667.73
2018-12-16T12:58:00.146Z,101669.63
2018-12-16T13:01:03.678Z,101679.89
2018-12-16T13:04:07.278Z,101676.20
2018-12-16T13:07:10.709Z,101666.64
2018-12-16T13:10:14.334Z,101678.15
2018-12-16T13:13:19.107Z,101664.82
2018-12-16T13:16:22.770Z,101662.62
2018-12-16T13:19:26.497Z,101668.56
2018-12-16T13:22:30.133Z,101657.71
2018-12-16T13:25:45.147Z,101653.36
2018-12-16T13:28:49.256Z,101659.08
2018-12-16T13:31:53.938Z,101654.29
2018-12-16T13:34:57.563Z,101656.74
2018-12-16T13:38:01.280Z,101662.81
2018-12-16T13:41:05.184Z,101666.81
2018-12-16T13:44:09.053Z,101667.42
2018-12-16T13:47:12.415Z,101664.83
2018-12-16T13:50:17.999Z,101665.44
2018-12-16T13:53:21.440Z,101665.18
2018-12-16T13:56:25.057Z,101663.81
2018-12-16T13:59:28.811Z,101668.39
2018-12-16T14:02:32.401Z,101675.86
2018-12-16T14:05:36.028Z,101682.23
2018-12-16T14:08:39.646Z,101688.82
2018-12-16T14:11:45.097Z,101685.36
2018-12-16T14:14:48.702Z,101684.91
2018-12-16T14:17:52.544Z,101676.52
2018-12-16T14:20:56.161Z,101676.65
2018-12-16T14:24:00.813Z,101686.37
2018-12-16T14:27:04.433Z,101695.50
2018-12-16T14:30:10.932Z,101693.18
2018-12-16T14:33:14.461Z,101699.94
2018-12-16T14:36:18.845Z,101714.08
2018-12-16T14:39:23.955Z,101712.81
2018-12-16T14:42:27.598Z,101717.16
2018-12-16T14:45:36.776Z,101718.04
2018-12-16T14:48:41.423Z,101716.41
2018-12-16T14:51:45.005Z,101709.78
2018-12-16T14:54:48.644Z,101696.92
2018-12-16T14:57:52.663Z,101701.21
2018-12-16T15:00:56.258Z,101700.42
2018-12-16T15:03:59.901Z,101701.74
2018-12-16T15:07:03.528Z,101708.55
2018-12-16T15:10:10.642Z,101710.31
2018-12-16T15:13:14.117Z,101716.20
2018-12-16T15:16:17.571Z,101707.28
2018-12-16T15:19:21.155Z,101705.95
2018-12-16T15:22:24.771Z,101711.86
2018-12-16T15:25:28.426Z,101709.99
2018-12-16T15:28:32.013Z,101710.00
2018-12-16T15:31:35.623Z,101723.92
2018-12-16T15:34:39.266Z,101720.71
2018-12-16T15:37:42.797Z,101722.95
2018-12-16T15:40:46.566Z,101724.66
2018-12-16T15:43:50.316Z,101724.32
2018-12-16T15:46:54.516Z,101725.86
2018-12-16T15:49:58.201Z,101721.69
2018-12-16T15:53:01.782Z,101719.44
2018-12-16T15:56:09.320Z,101729.85
2018-12-16T15:59:09.291Z,101725.02
2018-12-16T16:02:12.857Z,101720.15
2018-12-16T16:05:16.333Z,101727.24
2018-12-16T16:08:20.127Z,101728.58
2018-12-16T16:11:23.637Z,101734.27
2018-12-16T16:14:27.077Z,101732.60
2018-12-16T16:17:30.682Z,101735.98
2018-12-16T16:20:34.240Z,101739.97
2018-12-16T16:23:38.038Z,101740.02
2018-12-16T16:26:41.540Z,101741.64
2018-12-16T16:29:45.880Z,101741.38
2018-12-16T16:32:49.525Z,101739.89
2018-12-16T16:35:54.002Z,101734.83
2018-12-16T16:38:58.023Z,101733.03
2018-12-16T16:42:01.831Z,101737.12
2018-12-16T16:45:06.582Z,101741.51
2018-12-16T16:48:10.268Z,101738.58
2018-12-16T16:51:13.870Z,101747.09
2018-12-16T16:54:17.557Z,101753.95
2018-12-16T16:57:22.390Z,101756.41
2018-12-16T17:00:26.139Z,101753.33
2018-12-16T17:03:30.241Z,101762.88
2018-12-16T17:06:34.054Z,101760.02
2018-12-16T17:09:39.618Z,101763.57
2018-12-16T17:12:43.147Z,101765.52
2018-12-16T17:15:46.605Z,101770.66
2018-12-16T17:18:50.213Z,101772.51
2018-12-16T17:21:53.981Z,101777.61
2018-12-16T17:24:57.456Z,101772.33
2018-12-16T17:28:00.992Z,101771.41
2018-12-16T17:31:04.414Z,101773.72
2018-12-16T17:34:08.065Z,101772.99
2018-12-16T17:37:12.852Z,101779.27
2018-12-16T17:40:16.498Z,101783.90
2018-12-16T17:43:20.112Z,101789.56
2018-12-16T17:46:23.811Z,101784.16
2018-12-16T17:49:27.346Z,101786.39
2018-12-16T17:52:31.061Z,101785.42
2018-12-16T17:55:34.600Z,101782.26
2018-12-16T17:58:38.165Z,101784.64
2018-12-16T18:01:41.669Z,101787.84
2018-12-16T18:04:45.304Z,101792.01
2018-12-16T18:07:48.948Z,101790.34
2018-12-16T18:10:53.545Z,101792.72
2018-12-16T18:13:57.218Z,101799.67
2018-12-16T18:17:00.982Z,101794.34
2018-12-16T18:20:05.790Z,101799.40
2018-12-16T18:23:09.347Z,101799.72
2018-12-16T18:26:12.920Z,101803.76
2018-12-16T18:29:16.809Z,101808.86
2018-12-16T18:32:20.665Z,101811.55
2018-12-16T18:35:24.228Z,101817.49
2018-12-16T18:38:27.931Z,101819.65
2018-12-16T18:41:31.475Z,101817.97
2018-12-16T18:44:35.145Z,101817.79
2018-12-16T18:47:38.747Z,101818.76
2018-12-16T18:50:42.425Z,101821.76
2018-12-16T18:53:45.980Z,101815.25
2018-12-16T18:56:51.300Z,101812.57
2018-12-16T18:59:53.333Z,101816.30
2018-12-16T19:02:57.011Z,101819.78
2018-12-16T19:06:00.737Z,101820.87
2018-12-16T19:09:05.307Z,101819.73
2018-12-16T19:12:09.038Z,101822.90
2018-12-16T19:15:12.676Z,101823.34
2018-12-16T19:18:16.259Z,101828.34
2018-12-16T19:21:19.884Z,101823.07
2018-12-16T19:24:23.722Z,101813.48
2018-12-16T19:27:27.266Z,101815.94
2018-12-16T19:30:30.895Z,101815.94
2018-12-16T19:33:34.748Z,101817.17
2018-12-16T19:36:38.184Z,101817.79
2018-12-16T19:39:41.960Z,101822.80
2018-12-16T19:42:45.398Z,101828.83
2018-12-16T19:45:49.029Z,101836.95
2018-12-16T19:48:52.510Z,101837.93
2018-12-16T19:51:56.129Z,101842.03
2018-12-16T19:54:59.769Z,101845.16
2018-12-16T19:58:03.218Z,101839.03
2018-12-16T20:01:07.003Z,101837.54
2018-12-16T20:04:15.625Z,101839.34
2018-12-16T20:07:20.240Z,101842.82
2018-12-16T20:10:23.868Z,101840.18
2018-12-16T20:13:27.446Z,101844.54
2018-12-16T20:16:31.108Z,101844.27
2018-12-16T20:19:34.828Z,101848.85
2018-12-16T20:22:38.602Z,101848.68
2018-12-16T20:25:42.185Z,101847.41
2018-12-16T20:28:45.621Z,101855.41
2018-12-16T20:31:49.172Z,101843.04
2018-12-16T20:34:53.686Z,101846.51
2018-12-16T20:37:57.325Z,101850.22
2018-12-16T20:41:00.875Z,101844.80
2018-12-16T20:44:04.419Z,101849.86
2018-12-16T20:47:08.017Z,101847.88
2018-12-16T20:50:11.521Z,101855.05
2018-12-16T20:53:15.227Z,101851.62
2018-12-16T20:56:18.846Z,101849.56
2018-12-16T20:59:23.304Z,101848.76
2018-12-16T21:02:26.831Z,101846.56
2018-12-16T21:05:30.409Z,101852.33
2018-12-16T21:08:34.109Z,101852.45
2018-12-16T21:11:42.944Z,101854.39
2018-12-16T21:14:51.877Z,101858.35
2018-12-16T21:18:00.724Z,101853.42
2018-12-16T21:21:04.382Z,101858.04
2018-12-16T21:24:07.920Z,101859.76
2018-12-16T21:27:11.398Z,101857.69
2018-12-16T21:30:14.872Z,101859.49
2018-12-16T21:33:18.761Z,101868.03
2018-12-16T21:36:22.266Z,101860.95
2018-12-16T21:39:25.876Z,101857.51
2018-12-16T21:42:29.447Z,101855.19
2018-12-16T21:45:34.380Z,101866.53
2018-12-16T21:48:38.175Z,101868.17
2018-12-16T21:51:41.870Z,101868.87
2018-12-16T21:54:45.449Z,101875.20
2018-12-16T21:57:49.019Z,101876.61
2018-12-16T22:00:52.851Z,101880.35
2018-12-16T22:03:56.536Z,101879.91
2018-12-16T22:07:00.103Z,101882.37
2018-12-16T22:10:03.819Z,101888.76
2018-12-16T22:13:07.414Z,101892.10
2018-12-16T22:16:11.005Z,101898.92
2018-12-16T22:19:14.604Z,101893.33
2018-12-16T22:22:18.188Z,101893.59
2018-12-16T22:25:21.838Z,101899.27
2018-12-16T22:28:25.431Z,101905.65
2018-12-16T22:31:29.051Z,101913.95
2018-12-16T22:34:32.750Z,101913.35
2018-12-16T22:37:36.416Z,101911.55
2018-12-16T22:40:40.685Z,101915.41
2018-12-16T22:43:43.970Z,101919.86
2018-12-16T22:46:47.769Z,101917.13
2018-12-16T22:49:51.293Z,101917.18
2018-12-16T22:52:54.856Z,101908.83
2018-12-16T22:55:58.556Z,101907.07
2018-12-16T22:59:02.166Z,101906.62
2018-12-16T23:02:05.757Z,101908.16
2018-12-16T23:05:09.308Z,101913.52
2018-12-16T23:08:12.767Z,101913.08
2018-12-16T23:11:16.465Z,101916.00
2018-12-16T23:14:20.109Z,101915.24
2018-12-16T23:17:23.742Z,101912.52
2018-12-16T23:20:29.499Z,101910.10
2018-12-16T23:23:33.010Z,101905.48
2018-12-16T23:26:36.836Z,101906.84
2018-12-16T23:29:40.338Z,101906.62
2018-12-16T23:32:43.854Z,101907.33
2018-12-16T23:35:48.687Z,101900.89
2018-12-16T23:38:52.192Z,101900.85
2018-12-16T23:41:55.754Z,101906.75
2018-12-16T23:44:59.203Z,101912.35
2018-12-16T23:48:02.752Z,101912.52
2018-12-16T23:51:06.335Z,101910.93
2018-12-16T23:54:10.064Z,101912.47
2018-12-16T23:57:15.807Z,101906.92
